Stations météo

réclame
Mon MeteoGroup
Buzenol, Belgique (6484): Température de l'air & dewpoint: 18.11.2017 15:00:00 - 24.11.2017 15:00:00 (CET)Buzenol, Belgique (6484): Vitesse du vent & gusts: 18.11.2017 15:00:00 - 24.11.2017 15:00:00 (CET)Buzenol, Belgique (6484): Direction du vent: 18.11.2017 15:00:00 - 24.11.2017 15:00:00 (CET)Buzenol, Belgique (6484): reduced air pressure: 18.11.2017 15:00:00 - 24.11.2017 15:00:00 (CET)Buzenol, Belgique (6484): Ensoleillement: 18.11.2017 15:00:00 - 24.11.2017 15:00:00 (CET)Buzenol, Belgique (6484): Quantités de précipitations: 18.11.2017 15:00:00 - 24.11.2017 15:00:00 (CET)
Date & Time tt [°C] td [°C] ff [km/h] ff [knt] fx [km/h] fx [knt] dd ppp [hPa] sd [min] rr [mm]
24.11.2017 15:00:00 - - - - - - - - - -
24.11.2017 14:00:00 9,2 9,2 8 5 23 12 WNW 1012,0 0 0,3
24.11.2017 13:00:00 9,9 9,9 11 6 21 12 W 1011,4 0 0,2
24.11.2017 12:00:00 9,8 9,8 11 6 27 15 W 1011,2 0 0,6
24.11.2017 11:00:00 9,9 9,7 15 8 33 18 WSW 1010,8 0 0,9
24.11.2017 10:00:00 11,0 8,7 16 9 29 16 WSW 1009,9 0 0,0
24.11.2017 09:00:00 11,5 9,0 21 11 39 21 WSW 1009,3 0 0,0
24.11.2017 08:00:00 10,9 9,8 17 9 40 22 SW 1008,9 0 0,0
24.11.2017 07:00:00 10,9 10,7 25 14 41 22 SW 1008,5 0 0,1
24.11.2017 06:00:00 9,9 9,9 22 12 35 19 SSW 1008,7 0 0,6
24.11.2017 05:00:00 10,2 10,2 20 11 34 18 SW 1009,2 0 0,2
24.11.2017 04:00:00 10,2 10,2 18 10 28 15 SSW 1009,2 0 0,1
24.11.2017 03:00:00 10,1 10,1 17 9 25 14 S 1009,9 0 0,0
24.11.2017 02:00:00 10,3 10,3 17 9 26 14 SSW 1010,4 0 0,0
24.11.2017 01:00:00 10,5 10,5 18 10 25 14 SW 1011,0 0 0,1
24.11.2017 00:00:00 10,1 10,1 14 8 23 13 SSW 1011,3 0 1,0
23.11.2017 23:00:00 10,4 10,4 9 5 18 10 SW 1011,5 0 2,3
23.11.2017 22:00:00 10,6 10,6 13 7 24 13 SW 1011,3 0 0,3
23.11.2017 21:00:00 10,7 10,7 10 6 23 12 SW 1011,1 0 1,3
23.11.2017 20:00:00 10,9 10,7 12 6 22 12 WSW 1010,8 0 0,8
23.11.2017 19:00:00 11,2 9,6 12 6 43 23 WSW 1010,6 0 3,1
23.11.2017 18:00:00 13,7 8,9 21 11 42 23 WSW 1008,8 0 0,0
23.11.2017 17:00:00 13,3 9,1 19 11 40 22 SW 1008,5 0 0,0
23.11.2017 16:00:00 13,3 8,8 23 12 41 22 SW 1008,3 0 0,0
23.11.2017 15:00:00 13,4 8,3 19 10 47 26 WSW 1007,7 0 0,0
23.11.2017 14:00:00 13,2 8,3 21 12 46 25 WSW 1007,7 0 0,0
23.11.2017 13:00:00 13,2 8,2 22 12 53 29 WSW 1007,2 0 0,0
23.11.2017 12:00:00 - - - - - - - - - -
23.11.2017 11:00:00 - - - - - - - - - -
23.11.2017 10:00:00 12,2 6,4 22 12 37 20 SW 1006,0 16 0,0
23.11.2017 09:00:00 10,1 6,0 19 11 27 15 SSW 1005,6 0 0,0
23.11.2017 08:00:00 9,0 5,9 13 7 24 13 S 1005,4 0 0,0
23.11.2017 07:00:00 8,9 5,7 18 10 29 16 SSW 1005,1 0 0,0
23.11.2017 06:00:00 7,7 5,4 16 9 26 14 SSW 1005,1 0 0,0
23.11.2017 05:00:00 6,0 4,7 10 5 19 11 S 1005,6 0 0,0
23.11.2017 04:00:00 5,4 4,3 12 7 19 10 S 1005,9 0 0,1
23.11.2017 03:00:00 5,3 4,4 9 5 14 8 S 1006,4 0 0,0
23.11.2017 02:00:00 4,4 4,2 11 6 16 9 S 1006,9 0 0,0
23.11.2017 01:00:00 3,6 3,6 7 4 14 7 SSW 1007,3 0 0,0
23.11.2017 00:00:00 - - - - - - - - - -
22.11.2017 23:00:00 - - - - - - - - - -
22.11.2017 22:00:00 - - - - - - - - - -
22.11.2017 21:00:00 - - - - - - - - - -
22.11.2017 20:00:00 - - - - - - - - - -
22.11.2017 19:00:00 - - - - - - - - - -
22.11.2017 18:00:00 - - - - - - - - - -
22.11.2017 17:00:00 - - - - - - - - - -
22.11.2017 16:00:00 - - - - - - - - - -
22.11.2017 15:00:00 - - - - - - - - - -
22.11.2017 14:00:00 - - - - - - - - - -
22.11.2017 13:00:00 - - - - - - - - - -
22.11.2017 12:00:00 7,9 7,9 13 7 21 12 WSW 1012,5 6 0,0
22.11.2017 11:00:00 7,0 7,0 10 6 25 14 SW 1013,1 0 0,0
22.11.2017 10:00:00 6,6 6,6 11 6 28 15 SW 1013,0 0 0,0
22.11.2017 09:00:00 6,8 6,8 15 8 26 14 SW 1013,2 0 0,0
22.11.2017 08:00:00 6,9 6,9 13 7 23 12 SW 1012,9 0 0,0
22.11.2017 07:00:00 6,9 6,9 11 6 18 10 SW 1012,7 0 0,0
22.11.2017 06:00:00 7,0 7,0 11 6 18 10 SW 1013,1 0 0,0
22.11.2017 05:00:00 7,1 7,1 10 5 22 12 SW 1013,0 0 0,0
22.11.2017 04:00:00 7,0 7,0 14 8 23 12 SW 1013,4 0 0,0
22.11.2017 03:00:00 6,9 6,9 9 5 16 9 SW 1014,2 0 0,0
22.11.2017 02:00:00 6,9 6,9 11 6 20 11 SW 1014,2 0 0,0
22.11.2017 01:00:00 6,9 6,9 11 6 18 10 SW 1014,7 0 0,0
22.11.2017 00:00:00 6,7 6,7 9 5 19 10 SW 1014,9 0 0,0
21.11.2017 23:00:00 6,5 6,5 12 6 19 10 SW 1015,2 0 0,0
21.11.2017 22:00:00 6,4 6,4 11 6 19 10 SW 1015,5 0 0,0
21.11.2017 21:00:00 6,4 6,4 12 7 22 12 WSW 1015,8 0 0,0
21.11.2017 20:00:00 6,2 6,2 11 6 18 10 SW 1016,1 0 0,0
21.11.2017 19:00:00 - - - - - - - - - -
21.11.2017 18:00:00 - - - - - - - - - -
21.11.2017 17:00:00 5,9 5,9 10 5 24 13 WSW 1016,5 0 0,0
21.11.2017 16:00:00 5,9 5,9 12 7 27 15 WSW 1016,6 0 0,0
21.11.2017 15:00:00 5,9 5,9 16 8 33 18 WSW 1017,2 0 0,0
21.11.2017 14:00:00 6,3 6,3 16 9 32 17 WSW 1017,2 0 0,0
21.11.2017 13:00:00 6,7 6,7 14 8 34 18 W 1017,5 0 0,0
21.11.2017 12:00:00 6,9 6,9 14 7 28 15 WSW 1017,7 0 0,1
21.11.2017 11:00:00 - - - - - - - - - -
21.11.2017 10:00:00 - - - - - - - - - -
21.11.2017 09:00:00 - - - - - - - - - -
21.11.2017 08:00:00 - - - - - - - - - -
21.11.2017 07:00:00 7,2 7,2 14 8 28 15 WSW 1016,7 0 1,1
21.11.2017 06:00:00 - - - - - - - - - -
21.11.2017 05:00:00 - - - - - - - - - -
21.11.2017 04:00:00 7,2 7,2 16 9 26 14 WSW 1016,7 0 0,6
21.11.2017 03:00:00 - - - - - - - - - -
21.11.2017 02:00:00 6,9 6,9 14 8 31 17 WSW 1017,2 0 0,2
21.11.2017 01:00:00 6,8 6,8 14 8 34 18 W 1017,2 0 0,3
21.11.2017 00:00:00 6,8 6,8 18 10 29 16 W 1017,1 0 0,4
20.11.2017 23:00:00 6,7 6,7 16 9 30 16 WSW 1017,2 0 1,7
20.11.2017 22:00:00 6,5 6,5 16 9 30 16 WSW 1017,5 0 1,7
20.11.2017 21:00:00 6,3 6,3 18 10 34 19 WSW 1017,4 0 0,8
20.11.2017 20:00:00 5,9 5,9 18 10 30 16 WSW 1017,8 0 1,0
20.11.2017 19:00:00 5,5 5,5 14 8 31 17 WSW 1018,1 0 0,2
20.11.2017 18:00:00 4,8 4,8 13 7 28 15 W 1018,5 0 0,4
20.11.2017 17:00:00 4,1 4,1 14 7 28 15 WSW 1018,7 0 0,7
20.11.2017 16:00:00 3,7 3,7 15 8 26 14 WSW 1019,6 0 0,2
20.11.2017 15:00:00 3,2 3,2 16 9 28 15 WSW 1020,0 0 0,5
20.11.2017 14:00:00 2,8 2,8 15 8 26 14 SW 1021,0 0 0,2
20.11.2017 13:00:00 2,1 2,1 14 8 22 12 WSW 1021,8 0 0,0
20.11.2017 12:00:00 1,0 1,0 10 5 13 7 SSW 1022,7 0 0,0
20.11.2017 11:00:00 -0,1 -0,1 7 4 11 6 SSW 1023,8 0 0,1
20.11.2017 10:00:00 -0,2 -0,2 4 2 8 4 S 1024,3 0 0,0
20.11.2017 09:00:00 -0,3 -0,3 4 2 8 5 WSW 1024,2 0 0,0
20.11.2017 08:00:00 - - - - - - - - - -
20.11.2017 07:00:00 - - - - - - - - - -
20.11.2017 06:00:00 - - - - - - - - - -
20.11.2017 05:00:00 - - - - - - - - - -
20.11.2017 04:00:00 -1,6 -1,6 4 2 5 3 N 1025,3 0 0,0
20.11.2017 03:00:00 -2,0 -2,0 4 2 6 3 S 1025,5 0 0,0
20.11.2017 02:00:00 -2,0 -2,0 4 2 6 4 SSE 1025,3 0 0,0
20.11.2017 01:00:00 -1,8 -1,8 0 0 6 3 N 1025,9 0 0,0
20.11.2017 00:00:00 -2,0 -2,0 4 2 6 3 NNE 1026,2 0 0,0
19.11.2017 23:00:00 -1,2 -1,2 4 2 7 4 NNW 1026,2 0 0,0
19.11.2017 22:00:00 -1,3 -1,5 4 2 7 4 NE 1026,0 0 0,0
19.11.2017 21:00:00 0,0 -0,7 5 3 10 5 W 1025,5 0 0,0
19.11.2017 20:00:00 1,6 0,1 5 3 14 7 NW 1025,0 0 0,0
19.11.2017 19:00:00 2,8 0,4 7 4 15 8 NW 1024,0 0 0,0
19.11.2017 18:00:00 4,1 0,9 10 5 16 9 W 1023,2 0 0,0
19.11.2017 17:00:00 5,4 1,2 8 5 18 10 W 1022,5 0 0,0
19.11.2017 16:00:00 - - - - - - - - - -
19.11.2017 15:00:00 - - - - - - - - - -
19.11.2017 14:00:00 - - - - - - - - - -
19.11.2017 13:00:00 - - - - - - - - - -
19.11.2017 12:00:00 - - - - - - - - - -
19.11.2017 11:00:00 - - - - - - - - - -
19.11.2017 10:00:00 - - - - - - - - - -
19.11.2017 09:00:00 - - - - - - - - - -
19.11.2017 08:00:00 2,0 2,0 4 2 12 7 W 1020,2 0 0,0
19.11.2017 07:00:00 1,9 1,9 4 2 14 7 NE 1019,7 0 0,0
19.11.2017 06:00:00 3,6 3,6 5 3 15 8 NW 1018,9 0 0,0
19.11.2017 05:00:00 4,3 4,3 5 3 18 10 NW 1018,5 0 0,0
19.11.2017 04:00:00 5,1 5,1 10 5 21 11 WNW 1018,0 0 0,0
19.11.2017 03:00:00 5,3 5,3 8 4 20 11 WNW 1017,6 0 0,2
19.11.2017 02:00:00 - - - - - - - - - -
19.11.2017 01:00:00 - - - - - - - - - -
19.11.2017 00:00:00 4,8 4,8 13 7 24 13 WSW 1019,1 0 1,6
18.11.2017 23:00:00 4,4 4,4 11 6 26 14 WSW 1019,7 0 1,0
18.11.2017 22:00:00 4,0 4,0 11 6 21 11 W 1020,5 0 1,2
18.11.2017 21:00:00 3,2 3,2 10 5 19 11 WSW 1021,2 0 0,9
18.11.2017 20:00:00 2,6 2,6 9 5 18 10 WSW 1021,8 0 0,0
18.11.2017 19:00:00 1,9 1,9 7 4 16 8 WSW 1022,4 0 0,0
18.11.2017 18:00:00 1,7 1,7 6 3 15 8 SW 1022,6 0 0,0
18.11.2017 17:00:00 2,0 2,0 8 5 18 10 WSW 1023,0 0 0,0
18.11.2017 16:00:00 2,1 2,1 8 5 16 9 W 1023,3 0 0,0
18.11.2017 15:00:00 1,9 1,9 8 4 19 10 W 1024,0 0 0,0

tt = Température de l'air
td = dewpoint
ff = Vitesse du vent
fx = gusts
dd = Direction du vent
ppp = reduced air pressure
sd = Ensoleillement
rr = Quantités de précipitations

stations d'obs. à proximité